sensor_id;sensor_type;location;lat;lon;timestamp;P1;durP1;ratioP1;P2;durP2;ratioP2
4519;SDS011;2272;49.226;8.108;2022-10-17T00:00:56;2.80;;;2.70;;
4519;SDS011;2272;49.226;8.108;2022-10-17T00:03:23;3.00;;;2.90;;
4519;SDS011;2272;49.226;8.108;2022-10-17T00:05:50;3.00;;;2.80;;
4519;SDS011;2272;49.226;8.108;2022-10-17T00:08:18;2.80;;;2.30;;
4519;SDS011;2272;49.226;8.108;2022-10-17T00:10:45;2.77;;;2.67;;
4519;SDS011;2272;49.226;8.108;2022-10-17T00:13:21;2.70;;;2.63;;
4519;SDS011;2272;49.226;8.108;2022-10-17T00:15:47;2.87;;;2.77;;
4519;SDS011;2272;49.226;8.108;2022-10-17T00:18:14;2.70;;;2.67;;
4519;SDS011;2272;49.226;8.108;2022-10-17T00:20:41;3.20;;;2.80;;
4519;SDS011;2272;49.226;8.108;2022-10-17T00:23:08;1.87;;;1.87;;
4519;SDS011;2272;49.226;8.108;2022-10-17T00:25:36;3.17;;;2.80;;
4519;SDS011;2272;49.226;8.108;2022-10-17T00:28:02;8.80;;;4.70;;
4519;SDS011;2272;49.226;8.108;2022-10-17T00:30:29;2.70;;;2.60;;
4519;SDS011;2272;49.226;8.108;2022-10-17T00:32:56;2.80;;;2.70;;
4519;SDS011;2272;49.226;8.108;2022-10-17T00:35:23;2.80;;;2.70;;
4519;SDS011;2272;49.226;8.108;2022-10-17T00:37:50;3.00;;;2.90;;
4519;SDS011;2272;49.226;8.108;2022-10-17T00:40:17;3.03;;;2.93;;
4519;SDS011;2272;49.226;8.108;2022-10-17T00:42:45;4.90;;;2.87;;
4519;SDS011;2272;49.226;8.108;2022-10-17T00:45:14;3.20;;;3.00;;
4519;SDS011;2272;49.226;8.108;2022-10-17T00:47:44;3.57;;;3.27;;
4519;SDS011;2272;49.226;8.108;2022-10-17T00:50:16;2.60;;;2.50;;
4519;SDS011;2272;49.226;8.108;2022-10-17T00:52:44;2.77;;;2.67;;
4519;SDS011;2272;49.226;8.108;2022-10-17T00:55:14;2.23;;;2.03;;
4519;SDS011;2272;49.226;8.108;2022-10-17T00:57:46;3.10;;;2.93;;
4519;SDS011;2272;49.226;8.108;2022-10-17T01:00:13;4.67;;;3.47;;
4519;SDS011;2272;49.226;8.108;2022-10-17T01:02:41;10.47;;;3.50;;
4519;SDS011;2272;49.226;8.108;2022-10-17T01:05:08;3.53;;;3.33;;
4519;SDS011;2272;49.226;8.108;2022-10-17T01:07:37;26.97;;;3.77;;
4519;SDS011;2272;49.226;8.108;2022-10-17T01:10:05;7.13;;;3.67;;
4519;SDS011;2272;49.226;8.108;2022-10-17T01:12:35;7.80;;;3.33;;
4519;SDS011;2272;49.226;8.108;2022-10-17T01:15:13;3.57;;;3.37;;
4519;SDS011;2272;49.226;8.108;2022-10-17T01:17:51;7.13;;;3.67;;
4519;SDS011;2272;49.226;8.108;2022-10-17T01:23:29;3.17;;;2.90;;
4519;SDS011;2272;49.226;8.108;2022-10-17T01:26:22;6.97;;;2.73;;
4519;SDS011;2272;49.226;8.108;2022-10-17T01:29:00;3.43;;;3.13;;
4519;SDS011;2272;49.226;8.108;2022-10-17T01:31:43;3.20;;;2.97;;
4519;SDS011;2272;49.226;8.108;2022-10-17T01:34:13;3.33;;;3.03;;
4519;SDS011;2272;49.226;8.108;2022-10-17T01:36:44;21.93;;;4.00;;
4519;SDS011;2272;49.226;8.108;2022-10-17T01:39:17;2.57;;;2.47;;
4519;SDS011;2272;49.226;8.108;2022-10-17T01:41:50;3.30;;;3.13;;
4519;SDS011;2272;49.226;8.108;2022-10-17T01:44:23;2.70;;;2.60;;
4519;SDS011;2272;49.226;8.108;2022-10-17T01:46:56;10.23;;;3.60;;
4519;SDS011;2272;49.226;8.108;2022-10-17T01:49:28;24.40;;;4.27;;
4519;SDS011;2272;49.226;8.108;2022-10-17T01:51:59;5.20;;;3.77;;
4519;SDS011;2272;49.226;8.108;2022-10-17T01:54:30;5.67;;;3.27;;
4519;SDS011;2272;49.226;8.108;2022-10-17T01:56:59;4.83;;;3.13;;
4519;SDS011;2272;49.226;8.108;2022-10-17T01:59:35;3.83;;;3.63;;
4519;SDS011;2272;49.226;8.108;2022-10-17T02:02:06;3.70;;;3.13;;
4519;SDS011;2272;49.226;8.108;2022-10-17T02:04:34;3.63;;;3.10;;
4519;SDS011;2272;49.226;8.108;2022-10-17T02:07:05;3.83;;;3.73;;
4519;SDS011;2272;49.226;8.108;2022-10-17T02:09:33;4.30;;;2.90;;
4519;SDS011;2272;49.226;8.108;2022-10-17T02:12:04;3.87;;;3.67;;
4519;SDS011;2272;49.226;8.108;2022-10-17T02:14:45;6.10;;;3.57;;
4519;SDS011;2272;49.226;8.108;2022-10-17T02:17:29;14.23;;;4.47;;
4519;SDS011;2272;49.226;8.108;2022-10-17T02:20:07;4.60;;;4.20;;
4519;SDS011;2272;49.226;8.108;2022-10-17T02:22:41;5.30;;;4.90;;
4519;SDS011;2272;49.226;8.108;2022-10-17T02:25:13;7.90;;;5.90;;
4519;SDS011;2272;49.226;8.108;2022-10-17T02:27:47;6.07;;;5.67;;
4519;SDS011;2272;49.226;8.108;2022-10-17T02:30:20;5.50;;;5.10;;
4519;SDS011;2272;49.226;8.108;2022-10-17T02:32:55;7.60;;;6.03;;
4519;SDS011;2272;49.226;8.108;2022-10-17T02:35:26;7.10;;;6.50;;
4519;SDS011;2272;49.226;8.108;2022-10-17T02:37:56;9.87;;;7.00;;
4519;SDS011;2272;49.226;8.108;2022-10-17T02:40:24;8.23;;;6.70;;
4519;SDS011;2272;49.226;8.108;2022-10-17T02:42:53;8.47;;;7.30;;
4519;SDS011;2272;49.226;8.108;2022-10-17T02:45:21;13.00;;;6.87;;
4519;SDS011;2272;49.226;8.108;2022-10-17T02:47:53;8.47;;;5.70;;
4519;SDS011;2272;49.226;8.108;2022-10-17T02:50:25;6.77;;;6.17;;
4519;SDS011;2272;49.226;8.108;2022-10-17T02:52:59;9.43;;;6.40;;
4519;SDS011;2272;49.226;8.108;2022-10-17T02:55:31;10.23;;;5.90;;
4519;SDS011;2272;49.226;8.108;2022-10-17T02:58:01;7.20;;;5.90;;
4519;SDS011;2272;49.226;8.108;2022-10-17T03:00:31;7.37;;;6.67;;
4519;SDS011;2272;49.226;8.108;2022-10-17T03:03:00;6.87;;;6.23;;
4519;SDS011;2272;49.226;8.108;2022-10-17T03:05:43;8.00;;;6.27;;
4519;SDS011;2272;49.226;8.108;2022-10-17T03:08:09;9.53;;;6.87;;
4519;SDS011;2272;49.226;8.108;2022-10-17T03:10:36;9.30;;;7.37;;
4519;SDS011;2272;49.226;8.108;2022-10-17T03:13:03;19.50;;;7.60;;
4519;SDS011;2272;49.226;8.108;2022-10-17T03:15:30;9.93;;;7.60;;
4519;SDS011;2272;49.226;8.108;2022-10-17T03:17:56;15.53;;;8.00;;
4519;SDS011;2272;49.226;8.108;2022-10-17T03:20:24;14.60;;;7.63;;
4519;SDS011;2272;49.226;8.108;2022-10-17T03:22:51;16.20;;;8.47;;
4519;SDS011;2272;49.226;8.108;2022-10-17T03:25:18;10.90;;;8.57;;
4519;SDS011;2272;49.226;8.108;2022-10-17T03:27:45;10.80;;;7.00;;
4519;SDS011;2272;49.226;8.108;2022-10-17T03:30:12;9.20;;;6.97;;
4519;SDS011;2272;49.226;8.108;2022-10-17T03:32:38;7.67;;;6.47;;
4519;SDS011;2272;49.226;8.108;2022-10-17T03:35:05;6.03;;;5.50;;
4519;SDS011;2272;49.226;8.108;2022-10-17T03:37:34;7.80;;;5.67;;
4519;SDS011;2272;49.226;8.108;2022-10-17T03:40:00;9.37;;;5.13;;
4519;SDS011;2272;49.226;8.108;2022-10-17T03:42:27;6.50;;;5.10;;
4519;SDS011;2272;49.226;8.108;2022-10-17T03:44:54;6.60;;;4.40;;
4519;SDS011;2272;49.226;8.108;2022-10-17T03:47:21;5.57;;;5.10;;
4519;SDS011;2272;49.226;8.108;2022-10-17T03:49:48;4.73;;;4.27;;
4519;SDS011;2272;49.226;8.108;2022-10-17T03:52:17;4.77;;;4.40;;
4519;SDS011;2272;49.226;8.108;2022-10-17T03:54:45;7.90;;;4.30;;
4519;SDS011;2272;49.226;8.108;2022-10-17T03:57:12;5.20;;;4.40;;
4519;SDS011;2272;49.226;8.108;2022-10-17T03:59:39;7.67;;;4.73;;
4519;SDS011;2272;49.226;8.108;2022-10-17T04:02:05;4.67;;;4.37;;
4519;SDS011;2272;49.226;8.108;2022-10-17T04:04:32;3.97;;;3.67;;
4519;SDS011;2272;49.226;8.108;2022-10-17T04:06:59;4.50;;;4.20;;
4519;SDS011;2272;49.226;8.108;2022-10-17T04:09:25;5.03;;;4.57;;
4519;SDS011;2272;49.226;8.108;2022-10-17T04:11:53;4.77;;;4.07;;
4519;SDS011;2272;49.226;8.108;2022-10-17T04:14:20;14.07;;;4.10;;
4519;SDS011;2272;49.226;8.108;2022-10-17T04:16:47;13.57;;;4.60;;
4519;SDS011;2272;49.226;8.108;2022-10-17T04:19:14;10.80;;;5.17;;
4519;SDS011;2272;49.226;8.108;2022-10-17T04:21:40;5.80;;;4.13;;
4519;SDS011;2272;49.226;8.108;2022-10-17T04:24:08;4.53;;;4.33;;
4519;SDS011;2272;49.226;8.108;2022-10-17T04:26:36;4.03;;;3.90;;
4519;SDS011;2272;49.226;8.108;2022-10-17T04:29:04;4.87;;;4.13;;
4519;SDS011;2272;49.226;8.108;2022-10-17T04:31:31;4.23;;;3.63;;
4519;SDS011;2272;49.226;8.108;2022-10-17T04:33:58;4.07;;;3.87;;
4519;SDS011;2272;49.226;8.108;2022-10-17T04:36:24;9.10;;;4.70;;
4519;SDS011;2272;49.226;8.108;2022-10-17T04:38:51;6.67;;;4.30;;
4519;SDS011;2272;49.226;8.108;2022-10-17T04:41:18;3.50;;;3.40;;
4519;SDS011;2272;49.226;8.108;2022-10-17T04:43:45;5.40;;;4.90;;
4519;SDS011;2272;49.226;8.108;2022-10-17T04:46:13;6.43;;;4.83;;
4519;SDS011;2272;49.226;8.108;2022-10-17T04:48:40;5.97;;;4.03;;
4519;SDS011;2272;49.226;8.108;2022-10-17T04:51:09;5.60;;;3.73;;
4519;SDS011;2272;49.226;8.108;2022-10-17T04:53:40;6.10;;;4.10;;
4519;SDS011;2272;49.226;8.108;2022-10-17T04:56:08;5.23;;;4.83;;
4519;SDS011;2272;49.226;8.108;2022-10-17T04:58:36;4.93;;;4.63;;
4519;SDS011;2272;49.226;8.108;2022-10-17T05:01:04;12.87;;;5.20;;
4519;SDS011;2272;49.226;8.108;2022-10-17T05:03:33;5.80;;;4.77;;
4519;SDS011;2272;49.226;8.108;2022-10-17T05:06:04;4.07;;;3.97;;
4519;SDS011;2272;49.226;8.108;2022-10-17T05:08:32;4.37;;;4.07;;
4519;SDS011;2272;49.226;8.108;2022-10-17T05:10:59;4.23;;;3.93;;
4519;SDS011;2272;49.226;8.108;2022-10-17T05:13:26;5.03;;;4.63;;
4519;SDS011;2272;49.226;8.108;2022-10-17T05:15:53;4.87;;;4.47;;
4519;SDS011;2272;49.226;8.108;2022-10-17T05:18:23;8.17;;;4.50;;
4519;SDS011;2272;49.226;8.108;2022-10-17T05:20:51;5.00;;;4.60;;
4519;SDS011;2272;49.226;8.108;2022-10-17T05:23:17;4.67;;;4.30;;
4519;SDS011;2272;49.226;8.108;2022-10-17T05:25:44;5.30;;;4.50;;
4519;SDS011;2272;49.226;8.108;2022-10-17T05:28:11;5.63;;;5.13;;
4519;SDS011;2272;49.226;8.108;2022-10-17T05:30:38;10.70;;;5.37;;
4519;SDS011;2272;49.226;8.108;2022-10-17T05:33:04;4.57;;;4.27;;
4519;SDS011;2272;49.226;8.108;2022-10-17T05:35:31;4.57;;;4.30;;
4519;SDS011;2272;49.226;8.108;2022-10-17T05:37:59;5.33;;;4.83;;
4519;SDS011;2272;49.226;8.108;2022-10-17T05:40:26;4.50;;;4.30;;
4519;SDS011;2272;49.226;8.108;2022-10-17T05:42:53;5.60;;;4.20;;
4519;SDS011;2272;49.226;8.108;2022-10-17T05:45:19;10.97;;;3.80;;
4519;SDS011;2272;49.226;8.108;2022-10-17T05:47:46;3.80;;;3.70;;
4519;SDS011;2272;49.226;8.108;2022-10-17T05:50:13;3.80;;;3.37;;
4519;SDS011;2272;49.226;8.108;2022-10-17T05:52:40;4.03;;;3.20;;
4519;SDS011;2272;49.226;8.108;2022-10-17T05:55:08;2.80;;;2.70;;
4519;SDS011;2272;49.226;8.108;2022-10-17T05:57:35;3.47;;;3.27;;
4519;SDS011;2272;49.226;8.108;2022-10-17T06:00:02;3.40;;;3.20;;
4519;SDS011;2272;49.226;8.108;2022-10-17T06:02:30;3.07;;;2.97;;
4519;SDS011;2272;49.226;8.108;2022-10-17T06:04:57;4.23;;;3.10;;
4519;SDS011;2272;49.226;8.108;2022-10-17T06:07:24;3.47;;;3.27;;
4519;SDS011;2272;49.226;8.108;2022-10-17T06:09:50;3.80;;;3.53;;
4519;SDS011;2272;49.226;8.108;2022-10-17T06:12:18;4.57;;;3.90;;
4519;SDS011;2272;49.226;8.108;2022-10-17T06:14:45;4.17;;;3.97;;
4519;SDS011;2272;49.226;8.108;2022-10-17T06:17:12;5.13;;;4.63;;
4519;SDS011;2272;49.226;8.108;2022-10-17T06:19:39;5.43;;;3.90;;
4519;SDS011;2272;49.226;8.108;2022-10-17T06:22:06;7.97;;;4.13;;
4519;SDS011;2272;49.226;8.108;2022-10-17T06:24:33;5.30;;;4.97;;
4519;SDS011;2272;49.226;8.108;2022-10-17T06:26:59;5.10;;;4.40;;
4519;SDS011;2272;49.226;8.108;2022-10-17T06:29:28;10.83;;;5.27;;
4519;SDS011;2272;49.226;8.108;2022-10-17T06:31:55;5.50;;;5.03;;
4519;SDS011;2272;49.226;8.108;2022-10-17T06:34:22;5.17;;;4.83;;
4519;SDS011;2272;49.226;8.108;2022-10-17T06:36:48;5.37;;;4.97;;
4519;SDS011;2272;49.226;8.108;2022-10-17T06:39:15;7.77;;;6.27;;
4519;SDS011;2272;49.226;8.108;2022-10-17T06:41:42;7.37;;;5.63;;
4519;SDS011;2272;49.226;8.108;2022-10-17T06:44:09;5.90;;;4.87;;
4519;SDS011;2272;49.226;8.108;2022-10-17T06:46:38;5.77;;;5.30;;
4519;SDS011;2272;49.226;8.108;2022-10-17T06:49:05;7.13;;;5.63;;
4519;SDS011;2272;49.226;8.108;2022-10-17T06:51:33;8.87;;;5.33;;
4519;SDS011;2272;49.226;8.108;2022-10-17T06:54:01;7.70;;;5.37;;
4519;SDS011;2272;49.226;8.108;2022-10-17T06:56:28;5.70;;;5.13;;
4519;SDS011;2272;49.226;8.108;2022-10-17T06:58:54;8.53;;;5.77;;
4519;SDS011;2272;49.226;8.108;2022-10-17T07:01:21;16.10;;;5.47;;
4519;SDS011;2272;49.226;8.108;2022-10-17T07:03:49;7.30;;;4.83;;
4519;SDS011;2272;49.226;8.108;2022-10-17T07:06:16;6.97;;;6.33;;
4519;SDS011;2272;49.226;8.108;2022-10-17T07:08:43;9.70;;;6.47;;
4519;SDS011;2272;49.226;8.108;2022-10-17T07:11:10;6.90;;;6.20;;
4519;SDS011;2272;49.226;8.108;2022-10-17T07:13:38;7.77;;;6.87;;
4519;SDS011;2272;49.226;8.108;2022-10-17T07:16:05;13.07;;;7.80;;
4519;SDS011;2272;49.226;8.108;2022-10-17T07:18:33;11.80;;;7.00;;
4519;SDS011;2272;49.226;8.108;2022-10-17T07:21:01;8.03;;;7.00;;
4519;SDS011;2272;49.226;8.108;2022-10-17T07:23:28;11.30;;;7.67;;
4519;SDS011;2272;49.226;8.108;2022-10-17T07:25:58;7.23;;;6.60;;
4519;SDS011;2272;49.226;8.108;2022-10-17T07:28:25;10.73;;;7.97;;
4519;SDS011;2272;49.226;8.108;2022-10-17T07:30:52;8.53;;;6.93;;
4519;SDS011;2272;49.226;8.108;2022-10-17T07:33:19;8.60;;;7.60;;
4519;SDS011;2272;49.226;8.108;2022-10-17T07:35:46;7.93;;;7.10;;
4519;SDS011;2272;49.226;8.108;2022-10-17T07:38:14;10.30;;;6.77;;
4519;SDS011;2272;49.226;8.108;2022-10-17T07:40:41;9.20;;;5.90;;
4519;SDS011;2272;49.226;8.108;2022-10-17T07:43:07;6.63;;;6.03;;
4519;SDS011;2272;49.226;8.108;2022-10-17T07:45:34;5.87;;;5.33;;
4519;SDS011;2272;49.226;8.108;2022-10-17T07:48:01;6.57;;;6.03;;
4519;SDS011;2272;49.226;8.108;2022-10-17T07:50:28;8.80;;;5.40;;
4519;SDS011;2272;49.226;8.108;2022-10-17T07:52:55;5.67;;;5.20;;
4519;SDS011;2272;49.226;8.108;2022-10-17T07:55:23;7.30;;;5.70;;
4519;SDS011;2272;49.226;8.108;2022-10-17T07:57:50;16.03;;;9.50;;
4519;SDS011;2272;49.226;8.108;2022-10-17T08:00:17;12.93;;;7.07;;
4519;SDS011;2272;49.226;8.108;2022-10-17T08:02:44;5.17;;;4.87;;
4519;SDS011;2272;49.226;8.108;2022-10-17T08:05:11;11.13;;;4.20;;
4519;SDS011;2272;49.226;8.108;2022-10-17T08:07:37;4.30;;;4.10;;
4519;SDS011;2272;49.226;8.108;2022-10-17T08:10:06;3.57;;;3.20;;
4519;SDS011;2272;49.226;8.108;2022-10-17T08:12:34;5.17;;;4.70;;
4519;SDS011;2272;49.226;8.108;2022-10-17T08:15:01;10.00;;;3.60;;
4519;SDS011;2272;49.226;8.108;2022-10-17T08:17:28;5.07;;;4.67;;
4519;SDS011;2272;49.226;8.108;2022-10-17T08:19:54;7.33;;;5.43;;
4519;SDS011;2272;49.226;8.108;2022-10-17T08:22:21;14.70;;;7.70;;
4519;SDS011;2272;49.226;8.108;2022-10-17T08:24:48;9.23;;;8.40;;
4519;SDS011;2272;49.226;8.108;2022-10-17T08:27:15;10.77;;;8.27;;
4519;SDS011;2272;49.226;8.108;2022-10-17T08:29:49;12.00;;;8.97;;
4519;SDS011;2272;49.226;8.108;2022-10-17T08:32:17;14.70;;;6.90;;
4519;SDS011;2272;49.226;8.108;2022-10-17T08:34:45;8.90;;;5.40;;
4519;SDS011;2272;49.226;8.108;2022-10-17T08:37:12;10.63;;;5.17;;
4519;SDS011;2272;49.226;8.108;2022-10-17T08:39:39;7.00;;;4.50;;
4519;SDS011;2272;49.226;8.108;2022-10-17T08:42:16;6.40;;;5.70;;
4519;SDS011;2272;49.226;8.108;2022-10-17T08:45:02;9.27;;;7.10;;
4519;SDS011;2272;49.226;8.108;2022-10-17T08:47:39;7.13;;;5.80;;
4519;SDS011;2272;49.226;8.108;2022-10-17T08:50:09;4.30;;;4.10;;
4519;SDS011;2272;49.226;8.108;2022-10-17T08:52:40;5.70;;;4.37;;
4519;SDS011;2272;49.226;8.108;2022-10-17T08:55:13;4.83;;;4.17;;
4519;SDS011;2272;49.226;8.108;2022-10-17T08:57:42;3.90;;;3.70;;
4519;SDS011;2272;49.226;8.108;2022-10-17T09:00:13;3.87;;;3.57;;
4519;SDS011;2272;49.226;8.108;2022-10-17T09:02:47;5.60;;;4.73;;
4519;SDS011;2272;49.226;8.108;2022-10-17T09:05:24;5.30;;;4.93;;
4519;SDS011;2272;49.226;8.108;2022-10-17T09:07:58;4.00;;;3.80;;
4519;SDS011;2272;49.226;8.108;2022-10-17T09:10:34;5.03;;;4.63;;
4519;SDS011;2272;49.226;8.108;2022-10-17T09:13:09;3.30;;;3.07;;
4519;SDS011;2272;49.226;8.108;2022-10-17T09:15:49;3.40;;;3.10;;
4519;SDS011;2272;49.226;8.108;2022-10-17T09:18:26;6.33;;;4.03;;
4519;SDS011;2272;49.226;8.108;2022-10-17T09:20:58;3.80;;;3.60;;
4519;SDS011;2272;49.226;8.108;2022-10-17T09:23:29;3.73;;;3.43;;
4519;SDS011;2272;49.226;8.108;2022-10-17T09:25:58;3.97;;;3.30;;
4519;SDS011;2272;49.226;8.108;2022-10-17T09:28:26;6.53;;;3.53;;
4519;SDS011;2272;49.226;8.108;2022-10-17T09:30:58;4.90;;;3.20;;
4519;SDS011;2272;49.226;8.108;2022-10-17T09:33:28;4.20;;;3.87;;
4519;SDS011;2272;49.226;8.108;2022-10-17T09:35:58;3.90;;;3.40;;
4519;SDS011;2272;49.226;8.108;2022-10-17T09:38:28;8.10;;;3.73;;
4519;SDS011;2272;49.226;8.108;2022-10-17T09:41:03;6.43;;;3.40;;
4519;SDS011;2272;49.226;8.108;2022-10-17T09:43:31;8.30;;;3.20;;
4519;SDS011;2272;49.226;8.108;2022-10-17T09:46:04;4.53;;;4.23;;
4519;SDS011;2272;49.226;8.108;2022-10-17T09:48:34;5.77;;;3.60;;
4519;SDS011;2272;49.226;8.108;2022-10-17T09:51:04;6.20;;;3.20;;
4519;SDS011;2272;49.226;8.108;2022-10-17T09:53:33;4.70;;;3.40;;
4519;SDS011;2272;49.226;8.108;2022-10-17T09:56:02;9.70;;;3.13;;
4519;SDS011;2272;49.226;8.108;2022-10-17T09:58:40;4.13;;;3.37;;
4519;SDS011;2272;49.226;8.108;2022-10-17T10:01:16;13.40;;;3.63;;
4519;SDS011;2272;49.226;8.108;2022-10-17T10:03:45;6.40;;;3.60;;
4519;SDS011;2272;49.226;8.108;2022-10-17T10:06:13;3.23;;;3.00;;
4519;SDS011;2272;49.226;8.108;2022-10-17T10:08:48;5.53;;;3.37;;
4519;SDS011;2272;49.226;8.108;2022-10-17T10:11:17;3.60;;;3.33;;
4519;SDS011;2272;49.226;8.108;2022-10-17T10:13:47;5.30;;;3.50;;
4519;SDS011;2272;49.226;8.108;2022-10-17T10:16:18;2.97;;;2.40;;
4519;SDS011;2272;49.226;8.108;2022-10-17T10:18:48;9.27;;;3.13;;
4519;SDS011;2272;49.226;8.108;2022-10-17T10:21:17;3.10;;;2.90;;
4519;SDS011;2272;49.226;8.108;2022-10-17T10:24:01;3.50;;;3.20;;
4519;SDS011;2272;49.226;8.108;2022-10-17T10:26:31;3.70;;;3.20;;
4519;SDS011;2272;49.226;8.108;2022-10-17T10:29:02;3.50;;;3.30;;
4519;SDS011;2272;49.226;8.108;2022-10-17T10:31:34;5.60;;;3.20;;
4519;SDS011;2272;49.226;8.108;2022-10-17T10:34:12;2.77;;;2.57;;
4519;SDS011;2272;49.226;8.108;2022-10-17T10:36:45;12.60;;;3.43;;
4519;SDS011;2272;49.226;8.108;2022-10-17T10:39:26;9.80;;;3.67;;
4519;SDS011;2272;49.226;8.108;2022-10-17T10:42:07;8.93;;;3.53;;
4519;SDS011;2272;49.226;8.108;2022-10-17T10:44:43;11.60;;;3.57;;
4519;SDS011;2272;49.226;8.108;2022-10-17T10:47:16;3.33;;;3.13;;
4519;SDS011;2272;49.226;8.108;2022-10-17T10:49:45;3.43;;;3.03;;
4519;SDS011;2272;49.226;8.108;2022-10-17T10:52:15;4.40;;;2.73;;
4519;SDS011;2272;49.226;8.108;2022-10-17T10:54:56;3.73;;;3.33;;
4519;SDS011;2272;49.226;8.108;2022-10-17T10:57:29;4.40;;;3.50;;
4519;SDS011;2272;49.226;8.108;2022-10-17T11:00:03;11.43;;;3.20;;
4519;SDS011;2272;49.226;8.108;2022-10-17T11:02:39;3.50;;;3.00;;
4519;SDS011;2272;49.226;8.108;2022-10-17T11:05:13;14.13;;;3.17;;
4519;SDS011;2272;49.226;8.108;2022-10-17T11:07:45;6.90;;;2.90;;
4519;SDS011;2272;49.226;8.108;2022-10-17T11:10:21;5.40;;;3.00;;
4519;SDS011;2272;49.226;8.108;2022-10-17T11:12:53;3.40;;;3.10;;
4519;SDS011;2272;49.226;8.108;2022-10-17T11:15:25;4.90;;;3.20;;
4519;SDS011;2272;49.226;8.108;2022-10-17T11:17:58;3.87;;;2.70;;
4519;SDS011;2272;49.226;8.108;2022-10-17T11:20:29;10.10;;;2.90;;
4519;SDS011;2272;49.226;8.108;2022-10-17T11:23:08;4.83;;;2.73;;
4519;SDS011;2272;49.226;8.108;2022-10-17T11:25:44;4.33;;;2.90;;
4519;SDS011;2272;49.226;8.108;2022-10-17T11:28:13;3.43;;;2.53;;
4519;SDS011;2272;49.226;8.108;2022-10-17T11:30:43;7.83;;;2.50;;
4519;SDS011;2272;49.226;8.108;2022-10-17T11:33:16;3.13;;;1.97;;
4519;SDS011;2272;49.226;8.108;2022-10-17T11:35:49;3.10;;;2.40;;
4519;SDS011;2272;49.226;8.108;2022-10-17T11:38:21;3.57;;;2.50;;
4519;SDS011;2272;49.226;8.108;2022-10-17T11:40:54;2.90;;;2.70;;
4519;SDS011;2272;49.226;8.108;2022-10-17T11:43:24;4.97;;;2.90;;
4519;SDS011;2272;49.226;8.108;2022-10-17T11:45:57;11.40;;;2.30;;
4519;SDS011;2272;49.226;8.108;2022-10-17T11:48:29;5.90;;;3.20;;
4519;SDS011;2272;49.226;8.108;2022-10-17T11:51:03;6.50;;;2.80;;
4519;SDS011;2272;49.226;8.108;2022-10-17T11:53:36;9.57;;;3.43;;
4519;SDS011;2272;49.226;8.108;2022-10-17T11:56:11;3.40;;;2.97;;
4519;SDS011;2272;49.226;8.108;2022-10-17T11:58:45;3.10;;;2.73;;
4519;SDS011;2272;49.226;8.108;2022-10-17T12:01:20;2.67;;;2.40;;
4519;SDS011;2272;49.226;8.108;2022-10-17T12:04:03;5.13;;;3.03;;
4519;SDS011;2272;49.226;8.108;2022-10-17T12:06:44;8.37;;;2.30;;
4519;SDS011;2272;49.226;8.108;2022-10-17T12:09:33;5.77;;;2.57;;
4519;SDS011;2272;49.226;8.108;2022-10-17T12:12:06;8.80;;;2.10;;
4519;SDS011;2272;49.226;8.108;2022-10-17T12:14:35;5.93;;;2.70;;
4519;SDS011;2272;49.226;8.108;2022-10-17T12:17:03;5.07;;;2.40;;
4519;SDS011;2272;49.226;8.108;2022-10-17T12:19:47;12.23;;;2.53;;
4519;SDS011;2272;49.226;8.108;2022-10-17T12:22:18;5.50;;;1.97;;
4519;SDS011;2272;49.226;8.108;2022-10-17T12:24:56;4.40;;;2.80;;
4519;SDS011;2272;49.226;8.108;2022-10-17T12:27:32;8.53;;;2.70;;
4519;SDS011;2272;49.226;8.108;2022-10-17T12:30:03;9.60;;;2.37;;
4519;SDS011;2272;49.226;8.108;2022-10-17T12:32:32;2.83;;;2.53;;
4519;SDS011;2272;49.226;8.108;2022-10-17T12:35:01;2.40;;;2.20;;
4519;SDS011;2272;49.226;8.108;2022-10-17T12:40:46;4.73;;;2.20;;
4519;SDS011;2272;49.226;8.108;2022-10-17T12:46:11;3.37;;;2.50;;
4519;SDS011;2272;49.226;8.108;2022-10-17T12:48:59;11.00;;;2.60;;
4519;SDS011;2272;49.226;8.108;2022-10-17T12:51:29;9.13;;;2.07;;
4519;SDS011;2272;49.226;8.108;2022-10-17T12:54:40;5.70;;;3.10;;
4519;SDS011;2272;49.226;8.108;2022-10-17T12:57:12;7.50;;;2.67;;
4519;SDS011;2272;49.226;8.108;2022-10-17T12:59:44;4.90;;;2.80;;
4519;SDS011;2272;49.226;8.108;2022-10-17T13:02:14;12.80;;;2.80;;
4519;SDS011;2272;49.226;8.108;2022-10-17T13:04:45;3.23;;;2.70;;
4519;SDS011;2272;49.226;8.108;2022-10-17T13:07:15;5.73;;;2.80;;
4519;SDS011;2272;49.226;8.108;2022-10-17T13:09:45;3.90;;;2.53;;
4519;SDS011;2272;49.226;8.108;2022-10-17T13:12:14;13.03;;;2.20;;
4519;SDS011;2272;49.226;8.108;2022-10-17T13:14:45;19.83;;;2.67;;
4519;SDS011;2272;49.226;8.108;2022-10-17T13:17:21;7.13;;;2.60;;
4519;SDS011;2272;49.226;8.108;2022-10-17T13:19:50;3.20;;;2.90;;
4519;SDS011;2272;49.226;8.108;2022-10-17T13:22:19;3.10;;;2.40;;
4519;SDS011;2272;49.226;8.108;2022-10-17T13:24:47;5.67;;;2.60;;
4519;SDS011;2272;49.226;8.108;2022-10-17T13:27:21;9.20;;;3.30;;
4519;SDS011;2272;49.226;8.108;2022-10-17T13:29:49;3.97;;;2.20;;
4519;SDS011;2272;49.226;8.108;2022-10-17T13:32:16;5.03;;;2.83;;
4519;SDS011;2272;49.226;8.108;2022-10-17T13:34:43;4.53;;;2.47;;
4519;SDS011;2272;49.226;8.108;2022-10-17T13:37:12;2.43;;;2.30;;
4519;SDS011;2272;49.226;8.108;2022-10-17T13:39:42;4.07;;;2.47;;
4519;SDS011;2272;49.226;8.108;2022-10-17T13:42:15;10.83;;;2.23;;
4519;SDS011;2272;49.226;8.108;2022-10-17T13:44:46;4.30;;;2.77;;
4519;SDS011;2272;49.226;8.108;2022-10-17T13:47:20;3.63;;;2.50;;
4519;SDS011;2272;49.226;8.108;2022-10-17T13:49:48;4.87;;;2.47;;
4519;SDS011;2272;49.226;8.108;2022-10-17T13:52:16;11.47;;;2.60;;
4519;SDS011;2272;49.226;8.108;2022-10-17T13:54:46;3.00;;;2.50;;
4519;SDS011;2272;49.226;8.108;2022-10-17T13:57:16;4.43;;;2.70;;
4519;SDS011;2272;49.226;8.108;2022-10-17T13:59:45;3.10;;;2.40;;
4519;SDS011;2272;49.226;8.108;2022-10-17T14:02:14;8.70;;;2.77;;
4519;SDS011;2272;49.226;8.108;2022-10-17T14:04:44;9.40;;;2.73;;
4519;SDS011;2272;49.226;8.108;2022-10-17T14:09:59;3.90;;;3.17;;
4519;SDS011;2272;49.226;8.108;2022-10-17T14:12:30;2.83;;;2.13;;
4519;SDS011;2272;49.226;8.108;2022-10-17T14:14:57;3.00;;;2.80;;
4519;SDS011;2272;49.226;8.108;2022-10-17T14:17:27;4.97;;;2.73;;
4519;SDS011;2272;49.226;8.108;2022-10-17T14:19:56;3.47;;;2.63;;
4519;SDS011;2272;49.226;8.108;2022-10-17T14:22:27;9.17;;;3.47;;
4519;SDS011;2272;49.226;8.108;2022-10-17T14:24:55;4.60;;;3.07;;
4519;SDS011;2272;49.226;8.108;2022-10-17T14:27:24;12.47;;;3.13;;
4519;SDS011;2272;49.226;8.108;2022-10-17T14:29:54;5.10;;;2.60;;
4519;SDS011;2272;49.226;8.108;2022-10-17T14:32:24;2.60;;;2.40;;
4519;SDS011;2272;49.226;8.108;2022-10-17T14:34:53;13.13;;;3.07;;
4519;SDS011;2272;49.226;8.108;2022-10-17T14:37:40;6.40;;;3.37;;
4519;SDS011;2272;49.226;8.108;2022-10-17T14:40:13;5.10;;;2.40;;
4519;SDS011;2272;49.226;8.108;2022-10-17T14:42:43;2.80;;;2.60;;
4519;SDS011;2272;49.226;8.108;2022-10-17T14:45:11;4.70;;;2.60;;
4519;SDS011;2272;49.226;8.108;2022-10-17T14:47:40;6.67;;;2.77;;
4519;SDS011;2272;49.226;8.108;2022-10-17T14:50:19;2.57;;;2.37;;
4519;SDS011;2272;49.226;8.108;2022-10-17T14:52:57;5.03;;;2.47;;
4519;SDS011;2272;49.226;8.108;2022-10-17T14:55:27;3.90;;;2.80;;
4519;SDS011;2272;49.226;8.108;2022-10-17T14:57:56;3.70;;;2.23;;
4519;SDS011;2272;49.226;8.108;2022-10-17T15:00:23;6.50;;;2.93;;
4519;SDS011;2272;49.226;8.108;2022-10-17T15:02:51;2.83;;;2.30;;
4519;SDS011;2272;49.226;8.108;2022-10-17T15:05:19;6.03;;;3.27;;
4519;SDS011;2272;49.226;8.108;2022-10-17T15:07:49;12.10;;;3.63;;
4519;SDS011;2272;49.226;8.108;2022-10-17T15:10:23;17.33;;;3.83;;
4519;SDS011;2272;49.226;8.108;2022-10-17T15:12:58;7.10;;;2.70;;
4519;SDS011;2272;49.226;8.108;2022-10-17T15:15:25;12.23;;;2.97;;
4519;SDS011;2272;49.226;8.108;2022-10-17T15:17:52;4.83;;;2.70;;
4519;SDS011;2272;49.226;8.108;2022-10-17T15:20:19;2.50;;;2.40;;
4519;SDS011;2272;49.226;8.108;2022-10-17T15:22:50;6.90;;;3.47;;
4519;SDS011;2272;49.226;8.108;2022-10-17T15:25:17;4.77;;;2.80;;
4519;SDS011;2272;49.226;8.108;2022-10-17T15:27:43;6.63;;;3.10;;
4519;SDS011;2272;49.226;8.108;2022-10-17T15:30:16;7.93;;;2.77;;
4519;SDS011;2272;49.226;8.108;2022-10-17T15:32:52;3.40;;;2.87;;
4519;SDS011;2272;49.226;8.108;2022-10-17T15:35:20;6.50;;;2.90;;
4519;SDS011;2272;49.226;8.108;2022-10-17T15:37:47;4.53;;;3.20;;
4519;SDS011;2272;49.226;8.108;2022-10-17T15:40:16;6.17;;;3.30;;
4519;SDS011;2272;49.226;8.108;2022-10-17T15:42:44;3.27;;;3.00;;